Camellia — VRCP9 — position and weather

sailwx.info

Track history (hours):
 
Tides and Currents Weather Stations Pressure Air Temp Water Temp Dewpoint Dewpoint Depression Visibility Wind Speed Wind Dir Waves Ship Positions

Camellia

Last reported at 2014-Aug-01 04:21 UTC. Time now 2014-Aug-02 00:22 UTC.
Position N 36°28' W 008°55'.

Length 222 m; draft 11.7 m.

Type: Ship (hazmat cat C). MMSI: 477791900.

Date/timePositionNaut miles runAvg speedWind from/ knotsBaromVisibWave heightAir tempDewpointWater temp
2014-Aug-01 04:21N 36°28' W 008°55'1620.1
2014-Aug-01 03:33N 36°33' W 009°14'2219.6
2014-Aug-01 02:25N 36°49' W 009°33'1920.5
2014-Aug-01 01:31N 37°07' W 009°38'2220.8
2014-Aug-01 00:27N 37°28' W 009°45'2720.4
2014-Jul-31 23:08N 37°54' W 009°52'1320.3
2014-Jul-31 22:31N 38°07' W 009°56'4120.0
2014-Jul-31 20:27N 38°47' W 010°06'72219.0
2014-Jul-30 06:23N 49°49' W 003°22'1819.8
2014-Jul-30 05:30N 49°58' W 002°58'4322.0
2014-Jul-30 03:33N 50°10' W 001°55'2322.9
2014-Jul-30 02:33N 50°16' W 001°20'2221.7
2014-Jul-30 01:33N 50°23' W 000°48'2119.8
2014-Jul-30 00:30N 50°28' W 000°16'1818.7
2014-Jul-29 23:32N 50°33' E 000°11'1717.6
2014-Jul-29 22:33N 50°38' E 000°37'1918.8
2014-Jul-29 21:33N 50°49' E 001°01'2121.1
2014-Jul-29 20:33N 51°03' E 001°26'2221.7
2014-Jul-29 19:33N 51°19' E 001°50'1817.9
2014-Jul-29 18:33N 51°37' E 001°47'1515.2
2014-Jul-29 17:33N 51°51' E 001°40'1515.0
2014-Jul-29 16:34N 51°40' E 001°24'1919.5
2014-Jul-29 15:34N 51°29' E 000°58'1616.2
2014-Jul-29 14:33N 51°30' E 000°32'8 8.1
2014-Jul-29 13:33N 51°27' E 000°20'1 0.5
2014-Jul-29 12:33N 51°28' E 000°20'0 0.0
2014-Jul-29 11:33N 51°28' E 000°20'0 0.0
2014-Jul-29 10:33N 51°28' E 000°20'0 0.0
2014-Jul-29 09:34N 51°28' E 000°20'0 0.0
2014-Jul-29 08:33N 51°28' E 000°20'0 0.0
2014-Jul-29 07:33N 51°28' E 000°20'0 0.0
2014-Jul-29 06:34N 51°28' E 000°20'0 0.0
2014-Jul-29 05:33N 51°28' E 000°20'0 0.0
2014-Jul-29 04:33N 51°28' E 000°20'0 0.0
2014-Jul-29 03:33N 51°28' E 000°20'0 0.0
2014-Jul-29 02:33N 51°28' E 000°20'0 0.0
2014-Jul-29 01:33N 51°28' E 000°20'0 0.1
2014-Jul-29 00:33N 51°28' E 000°20'7 7.0
2014-Jul-28 23:33N 51°30' E 000°30'1615.8
2014-Jul-28 22:34N 51°29' E 000°56'1919.0
2014-Jul-28 21:34N 51°38' E 001°22'1717.1
2014-Jul-28 20:33N 51°51' E 001°40'1 1.4
2014-Jul-28 19:33N 51°51' E 001°43'5 5.4
2014-Jul-28 18:33N 51°47' E 001°48'8 8.0
2014-Jul-28 17:33N 51°39' E 001°49'9 9.0
2014-Jul-28 16:33N 51°31' E 001°55'10 9.7
2014-Jul-28 15:33N 51°24' E 002°06'10 9.7
2014-Jul-28 14:31N 51°21' E 002°21'1212.0
2014-Jul-28 13:33N 51°23' E 002°40'1313.1
2014-Jul-28 12:33N 51°24' E 003°01'1616.4
2014-Jul-28 11:34N 51°25' E 003°27'1110.5
2014-Jul-28 10:33N 51°23' E 003°43'1110.8
2014-Jul-28 09:33N 51°26' E 003°60'1111.4
2014-Jul-28 08:34N 51°21' E 004°16'3 3.3
2014-Jul-28 07:33N 51°18' E 004°16'0 0.0
2014-Jul-28 06:33N 51°18' E 004°16'0 0.0
2014-Jul-28 05:33N 51°18' E 004°16'0 0.0
2014-Jul-28 04:33N 51°18' E 004°16'0 0.0
2014-Jul-28 03:33N 51°18' E 004°16'0 0.0
2014-Jul-28 02:33N 51°18' E 004°16'0 0.0
2014-Jul-28 01:33N 51°18' E 004°16'0 0.0
2014-Jul-28 00:33N 51°18' E 004°16'0 0.0
2014-Jul-27 23:30N 51°18' E 004°16'0 0.0
2014-Jul-27 22:33N 51°18' E 004°16'0 0.0
2014-Jul-27 20:33N 51°18' E 004°16'0 0.0
2014-Jul-27 19:33N 51°18' E 004°16'0 0.0
2014-Jul-27 18:33N 51°18' E 004°16'0 0.0
2014-Jul-27 17:33N 51°18' E 004°16'0 0.0
2014-Jul-27 16:33N 51°18' E 004°16'0 0.0
2014-Jul-27 15:33N 51°18' E 004°16'0 0.0
2014-Jul-27 14:33N 51°18' E 004°16'0 0.0
2014-Jul-27 13:30N 51°18' E 004°16'0 0.0
2014-Jul-27 12:33N 51°18' E 004°16'0 0.0
2014-Jul-27 11:33N 51°18' E 004°16'0 0.0
2014-Jul-27 10:33N 51°18' E 004°16'0 0.0
2014-Jul-27 09:32N 51°18' E 004°16'0 0.0
2014-Jul-27 08:32N 51°18' E 004°16'0 0.1
2014-Jul-27 07:34N 51°18' E 004°16'7 6.8
2014-Jul-27 06:34N 51°24' E 004°11'8 8.2
2014-Jul-27 05:34N 51°24' E 003°58'9 9.4
2014-Jul-27 04:33N 51°24' E 003°43'1111.2
2014-Jul-27 03:33N 51°25' E 003°25'1514.9
2014-Jul-27 02:33N 51°29' E 003°02'1817.8
2014-Jul-27 01:34N 51°45' E 003°13'1212.2
2014-Jul-27 00:33N 51°56' E 003°19'1616.3
2014-Jul-26 23:34N 52°13' E 003°23'1616.3
2014-Jul-26 22:33N 52°29' E 003°28'2016.5
2014-Jul-26 21:19N 52°47' E 003°43'1417.8
2014-Jul-26 20:33N 52°57' E 003°58'2217.3
2014-Jul-26 19:17N 53°12' E 004°25'1617.2
2014-Jul-26 18:21N 53°27' E 004°36'1316.4
2014-Jul-26 17:34N 53°32' E 004°55'1616.0
2014-Jul-26 16:33N 53°38' E 005°20'1615.8
2014-Jul-26 15:33N 53°43' E 005°45'1817.0
2014-Jul-26 14:31N 53°49' E 006°14'3917.3
2014-Jul-26 12:17N 53°58' E 007°18'1317.5
2014-Jul-26 11:33N 54°01' E 007°38'1716.9
2014-Jul-26 10:33N 54°01' E 008°07'1515.2
2014-Jul-26 09:34N 53°58' E 008°33'1413.6
2014-Jul-26 08:34N 53°50' E 008°52'1413.9
2014-Jul-26 07:33N 53°52' E 009°15'1414.0
2014-Jul-26 06:33N 53°42' E 009°30'1212.1
2014-Jul-26 05:33N 53°34' E 009°45'6 5.8
2014-Jul-26 04:33N 53°32' E 009°55'0 0.0
2014-Jul-26 03:29N 53°32' E 009°55'0 0.0
2014-Jul-26 02:29N 53°32' E 009°55'0 0.0
2014-Jul-26 01:32N 53°32' E 009°55'0 0.0
2014-Jul-26 00:29N 53°32' E 009°55'0 0.0
2014-Jul-25 23:32N 53°32' E 009°55'0 0.0
2014-Jul-25 22:28N 53°32' E 009°55'0 0.0
2014-Jul-25 21:31N 53°32' E 009°55'0 0.0
2014-Jul-25 20:32N 53°32' E 009°55'0 0.0
2014-Jul-25 19:32N 53°32' E 009°55'0 0.0
2014-Jul-25 18:31N 53°32' E 009°55'0 0.0
2014-Jul-25 17:28N 53°32' E 009°55'0 0.0
2014-Jul-25 16:31N 53°32' E 009°55'0 0.0
2014-Jul-25 15:31N 53°32' E 009°55'0 0.0
2014-Jul-25 14:28N 53°32' E 009°55'0 0.0
2014-Jul-25 13:28N 53°32' E 009°55'0 0.0
2014-Jul-25 12:28N 53°32' E 009°55'0 0.0
2014-Jul-25 11:32N 53°32' E 009°55'0 0.0
2014-Jul-25 10:28N 53°32' E 009°55'0 0.0
2014-Jul-25 09:32N 53°32' E 009°55'0 0.0
2014-Jul-25 08:32N 53°32' E 009°55'0 0.0
2014-Jul-25 07:28N 53°32' E 009°55'0 0.0
2014-Jul-25 06:28N 53°32' E 009°55'0 0.0
2014-Jul-25 05:28N 53°32' E 009°55'0 0.0
2014-Jul-25 04:31N 53°32' E 009°55'0 0.0
2014-Jul-25 03:31N 53°32' E 009°55'0 0.0
2014-Jul-25 02:28N 53°32' E 009°55'0 0.0
2014-Jul-25 01:31N 53°32' E 009°55'0 0.0
2014-Jul-25 00:31N 53°32' E 009°55'5 5.3
2014-Jul-24 23:34N 53°34' E 009°46'1111.1
2014-Jul-24 22:33N 53°40' E 009°31'1413.9
2014-Jul-24 21:33N 53°51' E 009°18'1312.9
2014-Jul-24 20:33N 53°51' E 008°56'1515.3
2014-Jul-24 19:34N 53°58' E 008°34'1615.9
2014-Jul-24 18:33N 53°59' E 008°07'8 7.9
2014-Jul-24 17:33N 53°57' E 007°53'9 9.1
2014-Jul-24 16:33N 53°55' E 007°38'10 9.7
2014-Jul-24 15:33N 53°53' E 007°22'1010.3
2014-Jul-24 14:33N 53°51' E 007°05'1413.9
2014-Jul-24 13:33N 53°48' E 006°42'1413.6
2014-Jul-24 12:33N 53°45' E 006°20'1413.7
2014-Jul-24 11:32N 53°40' E 005°57'1313.8
2014-Jul-24 10:33N 53°36' E 005°36'1413.8
2014-Jul-24 09:34N 53°31' E 005°14'1414.2
2014-Jul-24 08:33N 53°27' E 004°51'1413.8
2014-Jul-24 07:33N 53°16' E 004°37'1514.7
2014-Jul-24 06:33N 53°03' E 004°24'1514.9
2014-Jul-24 05:33N 52°50' E 004°14'1616.4
2014-Jul-24 04:33N 52°40' E 003°52'1616.5
2014-Jul-24 03:34N 52°28' E 003°32'1717.1
2014-Jul-24 02:33N 52°15' E 003°15'1717.4
2014-Jul-24 01:33N 52°01' E 002°59'1817.7
2014-Jul-24 00:33N 51°48' E 002°39'1817.8
2014-Jul-23 23:33N 51°35' E 002°20'1716.9
2014-Jul-23 22:33N 51°20' E 002°07'1616.4
2014-Jul-23 21:33N 51°08' E 001°49'8 7.8
2014-Jul-23 20:34N 51°02' E 001°57'9 9.2
2014-Jul-23 19:33N 51°00' E 002°11'0 0.0
2014-Jul-23 18:33N 51°00' E 002°11'0 0.0
2014-Jul-23 17:33N 51°00' E 002°11'0 0.0
2014-Jul-23 16:33N 51°00' E 002°11'0 0.0
2014-Jul-23 15:33N 51°00' E 002°11'0 0.0
2014-Jul-23 14:33N 51°00' E 002°11'0 0.0
2014-Jul-23 13:33N 51°00' E 002°11'0 0.0
2014-Jul-23 12:33N 51°00' E 002°11'0 0.0
2014-Jul-23 11:27N 51°00' E 002°11'0 0.0
2014-Jul-23 10:24N 51°00' E 002°11'2 2.9
2014-Jul-23 09:33N 51°03' E 002°09'1414.3
2014-Jul-23 08:34N 51°02' E 001°47'1313.3
2014-Jul-23 07:33N 50°55' E 001°29'12119.5
2014-Jul-23 01:22N 50°04' W 001°23'1720.5
2014-Jul-23 00:32N 49°60' W 001°49'1919.8
2014-Jul-22 23:33N 49°55' W 002°18'7020.4
2014-Jul-22 20:07N 49°26' W 003°56'3821.1
2014-Jul-22 18:17N 49°06' W 004°48'2321.0
2014-Jul-22 17:12N 48°55' W 005°18'1720.6
2014-Jul-22 16:23N 48°45' W 005°39'  
Track history (hours):
 
Tides and Currents Weather Stations Pressure Air Temp Water Temp Dewpoint Dewpoint Depression Visibility Wind Speed Wind Dir Waves Ship Positions

Camellia

Last reported at 2014-Aug-01 04:21 UTC. Time now 2014-Aug-02 00:22 UTC.
Position N 36°28' W 008°55'.

Length 222 m; draft 11.7 m.

Type: Ship (hazmat cat C). MMSI: 477791900.

Date/timePositionNaut miles runAvg speedWind from/ knotsBaromVisibWave heightAir tempDewpointWater temp
2014-Aug-01 04:21N 36°28' W 008°55'1620.1
2014-Aug-01 03:33N 36°33' W 009°14'2219.6
2014-Aug-01 02:25N 36°49' W 009°33'1920.5
2014-Aug-01 01:31N 37°07' W 009°38'2220.8
2014-Aug-01 00:27N 37°28' W 009°45'2720.4
2014-Jul-31 23:08N 37°54' W 009°52'1320.3
2014-Jul-31 22:31N 38°07' W 009°56'4120.0
2014-Jul-31 20:27N 38°47' W 010°06'72219.0
2014-Jul-30 06:23N 49°49' W 003°22'1819.8
2014-Jul-30 05:30N 49°58' W 002°58'4322.0
2014-Jul-30 03:33N 50°10' W 001°55'2322.9
2014-Jul-30 02:33N 50°16' W 001°20'2221.7
2014-Jul-30 01:33N 50°23' W 000°48'2119.8
2014-Jul-30 00:30N 50°28' W 000°16'1818.7
2014-Jul-29 23:32N 50°33' E 000°11'1717.6
2014-Jul-29 22:33N 50°38' E 000°37'1918.8
2014-Jul-29 21:33N 50°49' E 001°01'2121.1
2014-Jul-29 20:33N 51°03' E 001°26'2221.7
2014-Jul-29 19:33N 51°19' E 001°50'1817.9
2014-Jul-29 18:33N 51°37' E 001°47'1515.2
2014-Jul-29 17:33N 51°51' E 001°40'1515.0
2014-Jul-29 16:34N 51°40' E 001°24'1919.5
2014-Jul-29 15:34N 51°29' E 000°58'1616.2
2014-Jul-29 14:33N 51°30' E 000°32'8 8.1
2014-Jul-29 13:33N 51°27' E 000°20'1 0.5
2014-Jul-29 12:33N 51°28' E 000°20'0 0.0
2014-Jul-29 11:33N 51°28' E 000°20'0 0.0
2014-Jul-29 10:33N 51°28' E 000°20'0 0.0
2014-Jul-29 09:34N 51°28' E 000°20'0 0.0
2014-Jul-29 08:33N 51°28' E 000°20'0 0.0
2014-Jul-29 07:33N 51°28' E 000°20'0 0.0
2014-Jul-29 06:34N 51°28' E 000°20'0 0.0
2014-Jul-29 05:33N 51°28' E 000°20'0 0.0
2014-Jul-29 04:33N 51°28' E 000°20'0 0.0
2014-Jul-29 03:33N 51°28' E 000°20'0 0.0
2014-Jul-29 02:33N 51°28' E 000°20'0 0.0
2014-Jul-29 01:33N 51°28' E 000°20'0 0.1
2014-Jul-29 00:33N 51°28' E 000°20'7 7.0
2014-Jul-28 23:33N 51°30' E 000°30'1615.8
2014-Jul-28 22:34N 51°29' E 000°56'1919.0
2014-Jul-28 21:34N 51°38' E 001°22'1717.1
2014-Jul-28 20:33N 51°51' E 001°40'1 1.4
2014-Jul-28 19:33N 51°51' E 001°43'5 5.4
2014-Jul-28 18:33N 51°47' E 001°48'8 8.0
2014-Jul-28 17:33N 51°39' E 001°49'9 9.0
2014-Jul-28 16:33N 51°31' E 001°55'10 9.7
2014-Jul-28 15:33N 51°24' E 002°06'10 9.7
2014-Jul-28 14:31N 51°21' E 002°21'1212.0
2014-Jul-28 13:33N 51°23' E 002°40'1313.1
2014-Jul-28 12:33N 51°24' E 003°01'1616.4
2014-Jul-28 11:34N 51°25' E 003°27'1110.5
2014-Jul-28 10:33N 51°23' E 003°43'1110.8
2014-Jul-28 09:33N 51°26' E 003°60'1111.4
2014-Jul-28 08:34N 51°21' E 004°16'3 3.3
2014-Jul-28 07:33N 51°18' E 004°16'0 0.0
2014-Jul-28 06:33N 51°18' E 004°16'0 0.0
2014-Jul-28 05:33N 51°18' E 004°16'0 0.0
2014-Jul-28 04:33N 51°18' E 004°16'0 0.0
2014-Jul-28 03:33N 51°18' E 004°16'0 0.0
2014-Jul-28 02:33N 51°18' E 004°16'0 0.0
2014-Jul-28 01:33N 51°18' E 004°16'0 0.0
2014-Jul-28 00:33N 51°18' E 004°16'0 0.0
2014-Jul-27 23:30N 51°18' E 004°16'0 0.0
2014-Jul-27 22:33N 51°18' E 004°16'0 0.0
2014-Jul-27 20:33N 51°18' E 004°16'0 0.0
2014-Jul-27 19:33N 51°18' E 004°16'0 0.0
2014-Jul-27 18:33N 51°18' E 004°16'0 0.0
2014-Jul-27 17:33N 51°18' E 004°16'0 0.0
2014-Jul-27 16:33N 51°18' E 004°16'0 0.0
2014-Jul-27 15:33N 51°18' E 004°16'0 0.0
2014-Jul-27 14:33N 51°18' E 004°16'0 0.0
2014-Jul-27 13:30N 51°18' E 004°16'0 0.0
2014-Jul-27 12:33N 51°18' E 004°16'0 0.0
2014-Jul-27 11:33N 51°18' E 004°16'0 0.0
2014-Jul-27 10:33N 51°18' E 004°16'0 0.0
2014-Jul-27 09:32N 51°18' E 004°16'0 0.0
2014-Jul-27 08:32N 51°18' E 004°16'0 0.1
2014-Jul-27 07:34N 51°18' E 004°16'7 6.8
2014-Jul-27 06:34N 51°24' E 004°11'8 8.2
2014-Jul-27 05:34N 51°24' E 003°58'9 9.4
2014-Jul-27 04:33N 51°24' E 003°43'1111.2
2014-Jul-27 03:33N 51°25' E 003°25'1514.9
2014-Jul-27 02:33N 51°29' E 003°02'1817.8
2014-Jul-27 01:34N 51°45' E 003°13'1212.2
2014-Jul-27 00:33N 51°56' E 003°19'1616.3
2014-Jul-26 23:34N 52°13' E 003°23'1616.3
2014-Jul-26 22:33N 52°29' E 003°28'2016.5
2014-Jul-26 21:19N 52°47' E 003°43'1417.8
2014-Jul-26 20:33N 52°57' E 003°58'2217.3
2014-Jul-26 19:17N 53°12' E 004°25'1617.2
2014-Jul-26 18:21N 53°27' E 004°36'1316.4
2014-Jul-26 17:34N 53°32' E 004°55'1616.0
2014-Jul-26 16:33N 53°38' E 005°20'1615.8
2014-Jul-26 15:33N 53°43' E 005°45'1817.0
2014-Jul-26 14:31N 53°49' E 006°14'3917.3
2014-Jul-26 12:17N 53°58' E 007°18'1317.5
2014-Jul-26 11:33N 54°01' E 007°38'1716.9
2014-Jul-26 10:33N 54°01' E 008°07'1515.2
2014-Jul-26 09:34N 53°58' E 008°33'1413.6
2014-Jul-26 08:34N 53°50' E 008°52'1413.9
2014-Jul-26 07:33N 53°52' E 009°15'1414.0
2014-Jul-26 06:33N 53°42' E 009°30'1212.1
2014-Jul-26 05:33N 53°34' E 009°45'6 5.8
2014-Jul-26 04:33N 53°32' E 009°55'0 0.0
2014-Jul-26 03:29N 53°32' E 009°55'0 0.0
2014-Jul-26 02:29N 53°32' E 009°55'0 0.0
2014-Jul-26 01:32N 53°32' E 009°55'0 0.0
2014-Jul-26 00:29N 53°32' E 009°55'0 0.0
2014-Jul-25 23:32N 53°32' E 009°55'0 0.0
2014-Jul-25 22:28N 53°32' E 009°55'0 0.0
2014-Jul-25 21:31N 53°32' E 009°55'0 0.0
2014-Jul-25 20:32N 53°32' E 009°55'0 0.0
2014-Jul-25 19:32N 53°32' E 009°55'0 0.0
2014-Jul-25 18:31N 53°32' E 009°55'0 0.0
2014-Jul-25 17:28N 53°32' E 009°55'0 0.0
2014-Jul-25 16:31N 53°32' E 009°55'0 0.0
2014-Jul-25 15:31N 53°32' E 009°55'0 0.0
2014-Jul-25 14:28N 53°32' E 009°55'0 0.0
2014-Jul-25 13:28N 53°32' E 009°55'0 0.0
2014-Jul-25 12:28N 53°32' E 009°55'0 0.0
2014-Jul-25 11:32N 53°32' E 009°55'0 0.0
2014-Jul-25 10:28N 53°32' E 009°55'0 0.0
2014-Jul-25 09:32N 53°32' E 009°55'0 0.0
2014-Jul-25 08:32N 53°32' E 009°55'0 0.0
2014-Jul-25 07:28N 53°32' E 009°55'0 0.0
2014-Jul-25 06:28N 53°32' E 009°55'0 0.0
2014-Jul-25 05:28N 53°32' E 009°55'0 0.0
2014-Jul-25 04:31N 53°32' E 009°55'0 0.0
2014-Jul-25 03:31N 53°32' E 009°55'0 0.0
2014-Jul-25 02:28N 53°32' E 009°55'0 0.0
2014-Jul-25 01:31N 53°32' E 009°55'0 0.0
2014-Jul-25 00:31N 53°32' E 009°55'5 5.3
2014-Jul-24 23:34N 53°34' E 009°46'1111.1
2014-Jul-24 22:33N 53°40' E 009°31'1413.9
2014-Jul-24 21:33N 53°51' E 009°18'1312.9
2014-Jul-24 20:33N 53°51' E 008°56'1515.3
2014-Jul-24 19:34N 53°58' E 008°34'1615.9
2014-Jul-24 18:33N 53°59' E 008°07'8 7.9
2014-Jul-24 17:33N 53°57' E 007°53'9 9.1
2014-Jul-24 16:33N 53°55' E 007°38'10 9.7
2014-Jul-24 15:33N 53°53' E 007°22'1010.3
2014-Jul-24 14:33N 53°51' E 007°05'1413.9
2014-Jul-24 13:33N 53°48' E 006°42'1413.6
2014-Jul-24 12:33N 53°45' E 006°20'1413.7
2014-Jul-24 11:32N 53°40' E 005°57'1313.8
2014-Jul-24 10:33N 53°36' E 005°36'1413.8
2014-Jul-24 09:34N 53°31' E 005°14'1414.2
2014-Jul-24 08:33N 53°27' E 004°51'1413.8
2014-Jul-24 07:33N 53°16' E 004°37'1514.7
2014-Jul-24 06:33N 53°03' E 004°24'1514.9
2014-Jul-24 05:33N 52°50' E 004°14'1616.4
2014-Jul-24 04:33N 52°40' E 003°52'1616.5
2014-Jul-24 03:34N 52°28' E 003°32'1717.1
2014-Jul-24 02:33N 52°15' E 003°15'1717.4
2014-Jul-24 01:33N 52°01' E 002°59'1817.7
2014-Jul-24 00:33N 51°48' E 002°39'1817.8
2014-Jul-23 23:33N 51°35' E 002°20'1716.9
2014-Jul-23 22:33N 51°20' E 002°07'1616.4
2014-Jul-23 21:33N 51°08' E 001°49'8 7.8
2014-Jul-23 20:34N 51°02' E 001°57'9 9.2
2014-Jul-23 19:33N 51°00' E 002°11'0 0.0
2014-Jul-23 18:33N 51°00' E 002°11'0 0.0
2014-Jul-23 17:33N 51°00' E 002°11'0 0.0
2014-Jul-23 16:33N 51°00' E 002°11'0 0.0
2014-Jul-23 15:33N 51°00' E 002°11'0 0.0
2014-Jul-23 14:33N 51°00' E 002°11'0 0.0
2014-Jul-23 13:33N 51°00' E 002°11'0 0.0
2014-Jul-23 12:33N 51°00' E 002°11'0 0.0
2014-Jul-23 11:27N 51°00' E 002°11'0 0.0
2014-Jul-23 10:24N 51°00' E 002°11'2 2.9
2014-Jul-23 09:33N 51°03' E 002°09'1414.3
2014-Jul-23 08:34N 51°02' E 001°47'1313.3
2014-Jul-23 07:33N 50°55' E 001°29'12119.5
2014-Jul-23 01:22N 50°04' W 001°23'1720.5
2014-Jul-23 00:32N 49°60' W 001°49'1919.8
2014-Jul-22 23:33N 49°55' W 002°18'7020.4
2014-Jul-22 20:07N 49°26' W 003°56'3821.1
2014-Jul-22 18:17N 49°06' W 004°48'2321.0
2014-Jul-22 17:12N 48°55' W 005°18'1720.6
2014-Jul-22 16:23N 48°45' W 005°39'  

Dump ship's entire track history